Time;durP1;ratioP1;P1;durP2;ratioP2;P2;SDS_P1;SDS_P2;PMS_P1;PMS_P2;Temp;Humidity;BMP_temperature;BMP_pressure;BME280_temperature;BME280_humidity;BME280_pressure;Samples;Min_cycle;Max_cycle;Signal;HPM_P1;HPM_P2
2024/01/16 00:01:39;;;;;;;;;3.80;3.80;;;;;1.43;85.12;99022.19;5093778;28;8846;-57
2024/01/16 00:04:07;;;;;;;;;1.00;1.00;;;;;1.45;85.52;99027.34;5094877;28;8830;-57
2024/01/16 00:06:35;;;;;;;;;1.40;1.00;;;;;1.46;85.83;99027.22;5099805;28;8899;-56
2024/01/16 00:09:05;;;;;;;;;3.20;3.00;;;;;1.47;85.60;99022.84;5099003;28;8821;-58
2024/01/16 00:11:32;;;;;;;;;3.00;3.00;;;;;1.47;85.38;99022.84;5095527;28;8852;-59
2024/01/16 00:14:00;;;;;;;;;4.40;3.00;;;;;1.47;84.83;99028.94;5095241;28;8879;-57
2024/01/16 00:16:28;;;;;;;;;6.00;4.40;;;;;1.47;85.43;99023.69;5097215;28;8874;-57
2024/01/16 00:18:54;;;;;;;;;3.80;3.40;;;;;1.47;85.43;99022.84;5094498;28;8872;-56
2024/01/16 00:21:22;;;;;;;;;7.00;6.20;;;;;1.45;85.06;99028.16;5096311;28;9452;-57
2024/01/16 00:23:50;;;;;;;;;4.00;3.40;;;;;1.44;85.71;99038.78;5097385;28;8810;-57
2024/01/16 00:26:18;;;;;;;;;3.60;3.60;;;;;1.43;85.25;99039.66;5101282;28;8826;-59
2024/01/16 00:28:46;;;;;;;;;3.20;3.20;;;;;1.43;85.57;99053.66;5097342;28;8857;-56
2024/01/16 00:31:13;;;;;;;;;3.00;3.00;;;;;1.45;85.49;99045.69;5097681;28;9022;-59
2024/01/16 00:33:41;;;;;;;;;3.00;3.00;;;;;1.46;85.31;99048.22;5095326;28;9494;-57
2024/01/16 00:36:09;;;;;;;;;3.40;2.20;;;;;1.45;85.35;99049.16;5097375;28;8883;-56
2024/01/16 00:38:36;;;;;;;;;0.00;0.00;;;;;1.45;85.11;99045.69;5096947;28;8809;-59
2024/01/16 00:41:05;;;;;;;;;4.00;3.80;;;;;1.45;85.62;99054.38;5097971;28;8871;-56
2024/01/16 00:43:32;;;;;;;;;3.00;2.20;;;;;1.45;85.36;99048.31;5097291;28;8925;-57
2024/01/16 00:46:00;;;;;;;;;3.00;3.00;;;;;1.44;85.41;99054.50;5096000;28;8817;-57
2024/01/16 00:48:28;;;;;;;;;3.00;3.00;;;;;1.46;85.25;99052.63;5096163;28;8806;-56
2024/01/16 00:50:55;;;;;;;;;3.60;3.60;;;;;1.46;85.16;99063.94;5097203;28;8830;-59
2024/01/16 00:53:23;;;;;;;;;1.40;1.40;;;;;1.46;85.43;99058.69;5095405;28;8790;-57
2024/01/16 00:55:52;;;;;;;;;3.00;3.00;;;;;1.47;85.72;99065.66;5096943;28;8806;-58
2024/01/16 00:58:19;;;;;;;;;6.40;4.00;;;;;1.47;85.56;99063.03;5096900;28;8838;-59
2024/01/16 01:00:47;;;;;;;;;6.20;6.00;;;;;1.49;85.94;99069.03;5097622;28;8814;-57
2024/01/16 01:03:15;;;;;;;;;3.80;2.60;;;;;1.47;85.15;99070.91;5094781;28;8830;-56
2024/01/16 01:05:43;;;;;;;;;0.80;0.80;;;;;1.47;85.01;99070.91;5097404;28;9435;-59
2024/01/16 01:08:11;;;;;;;;;1.80;0.60;;;;;1.47;85.07;99078.78;5098697;28;8816;-56
2024/01/16 01:10:39;;;;;;;;;1.00;0.00;;;;;1.47;84.76;99081.41;5096425;28;8957;-57
2024/01/16 01:13:06;;;;;;;;;3.00;3.00;;;;;1.47;85.34;99081.41;5097129;28;9526;-58
2024/01/16 01:15:34;;;;;;;;;3.00;2.20;;;;;1.46;85.41;99073.59;5097225;28;8830;-59
2024/01/16 01:18:02;;;;;;;;;2.20;2.20;;;;;1.46;85.44;99078.84;5095147;28;8811;-56
2024/01/16 01:20:30;;;;;;;;;4.00;4.00;;;;;1.45;85.07;99079.78;5097519;28;9487;-59
2024/01/16 01:22:58;;;;;;;;;3.00;3.00;;;;;1.43;85.64;99082.50;5096947;28;8887;-57
2024/01/16 01:25:26;;;;;;;;;3.20;3.00;;;;;1.42;85.08;99086.03;5095643;28;8826;-58
2024/01/16 01:27:54;;;;;;;;;4.00;3.00;;;;;1.43;85.38;99090.34;5096911;28;8849;-59
2024/01/16 01:30:21;;;;;;;;;5.60;4.20;;;;;1.42;85.19;99093.06;5094682;28;8822;-56
2024/01/16 01:32:49;;;;;;;;;6.00;5.20;;;;;1.40;85.26;99095.78;5095162;28;8810;-59
2024/01/16 01:35:17;;;;;;;;;1.80;1.80;;;;;1.37;85.21;99084.63;5094532;28;9758;-57
2024/01/16 01:37:44;;;;;;;;;2.20;2.20;;;;;1.35;84.98;99083.84;5097301;28;8831;-56
2024/01/16 01:40:14;;;;;;;;;3.00;3.00;;;;;1.32;85.67;99078.78;5095852;28;8803;-57
2024/01/16 01:42:41;;;;;;;;;4.60;4.60;;;;;1.30;85.20;99093.75;5094998;28;8968;-59
2024/01/16 01:45:09;;;;;;;;;3.20;1.80;;;;;1.25;85.07;99078.28;5094712;28;8813;-59
2024/01/16 01:47:37;;;;;;;;;4.40;4.40;;;;;1.18;86.06;99090.06;5092242;28;8834;-59
2024/01/16 01:50:05;;;;;;;;;4.40;4.40;;;;;1.09;85.93;99093.19;5092080;28;8879;-57
2024/01/16 01:52:33;;;;;;;;;3.80;3.80;;;;;1.02;85.33;99091.84;5095005;28;8814;-56
2024/01/16 01:55:00;;;;;;;;;3.60;1.80;;;;;1.01;86.13;99097.16;5094837;28;8842;-57
2024/01/16 01:57:29;;;;;;;;;4.80;3.40;;;;;1.04;85.89;99108.31;5096692;28;8818;-56
2024/01/16 01:59:57;;;;;;;;;6.40;6.00;;;;;1.06;86.10;99111.69;5095940;28;8799;-57
2024/01/16 02:02:24;;;;;;;;;4.00;3.40;;;;;1.09;85.64;99108.91;5094002;28;8829;-56
2024/01/16 02:04:52;;;;;;;;;4.00;2.60;;;;;1.13;86.30;99109.59;5094773;28;8815;-59
2024/01/16 02:07:20;;;;;;;;;7.80;6.40;;;;;1.14;85.98;99106.88;5095608;28;8845;-58
2024/01/16 02:09:48;;;;;;;;;2.60;2.20;;;;;1.16;85.47;99107.63;5095390;28;8949;-57
2024/01/16 02:12:15;;;;;;;;;5.20;4.00;;;;;1.18;85.60;99107.53;5094750;28;8894;-57
2024/01/16 02:14:43;;;;;;;;;5.60;4.80;;;;;1.17;85.35;99106.72;5094705;28;8826;-57
2024/01/16 02:17:11;;;;;;;;;4.00;3.80;;;;;1.15;85.61;99116.41;5092495;28;8834;-57
2024/01/16 02:19:38;;;;;;;;;3.00;3.00;;;;;1.15;85.17;99105.09;5094853;28;8825;-59
2024/01/16 02:22:06;;;;;;;;;4.00;4.00;;;;;1.15;85.67;99112.97;5092604;28;8810;-57
2024/01/16 02:24:34;;;;;;;;;3.00;3.00;;;;;1.15;85.35;99113.78;5094421;28;8802;-56
2024/01/16 02:27:02;;;;;;;;;1.40;1.40;;;;;1.16;85.74;99101.53;5094257;28;8837;-57
2024/01/16 02:29:30;;;;;;;;;5.20;4.00;;;;;1.17;86.00;99114.56;5099180;28;8826;-56
2024/01/16 02:31:58;;;;;;;;;5.60;5.20;;;;;1.17;85.84;99114.56;5091957;28;8871;-59
2024/01/16 02:34:25;;;;;;;;;6.20;5.80;;;;;1.19;85.58;99117.09;5094638;28;9512;-59
2024/01/16 02:36:53;;;;;;;;;4.00;4.00;;;;;1.20;85.47;99111.78;5096351;28;8814;-57
2024/01/16 02:39:21;;;;;;;;;3.00;1.80;;;;;1.20;85.23;99113.53;5094964;28;8847;-58
2024/01/16 02:41:49;;;;;;;;;5.20;5.20;;;;;1.20;85.80;99119.63;5094517;28;8822;-56
2024/01/16 02:44:16;;;;;;;;;3.80;1.00;;;;;1.20;85.48;99119.63;5094561;28;8822;-57
2024/01/16 02:46:44;;;;;;;;;4.00;4.00;;;;;1.20;85.42;99117.03;5086015;28;8915;-56
2024/01/16 02:49:12;;;;;;;;;3.40;3.40;;;;;1.19;85.40;99117.94;5095772;28;8884;-57
2024/01/16 02:51:40;;;;;;;;;3.00;3.00;;;;;1.19;84.93;99122.34;5094871;28;8894;-59
2024/01/16 02:54:08;;;;;;;;;3.00;2.60;;;;;1.20;85.89;99129.25;5095525;28;8822;-57
2024/01/16 02:56:35;;;;;;;;;4.60;3.40;;;;;1.21;85.49;99120.50;5094867;28;8842;-59
2024/01/16 02:59:03;;;;;;;;;2.20;1.80;;;;;1.20;85.68;99114.41;5094555;28;8822;-57
2024/01/16 03:01:31;;;;;;;;;3.00;3.00;;;;;1.20;84.87;99122.25;5094175;28;8805;-59
2024/01/16 03:03:58;;;;;;;;;3.20;2.60;;;;;1.18;85.69;99118.03;5094912;28;8814;-59
2024/01/16 03:06:26;;;;;;;;;3.80;2.20;;;;;1.18;85.32;99125.88;5098401;28;8822;-57
2024/01/16 03:08:54;;;;;;;;;4.80;4.80;;;;;1.16;85.91;99128.59;5097828;28;9547;-56
2024/01/16 03:11:21;;;;;;;;;3.80;3.60;;;;;1.15;85.27;99129.53;5101134;28;8822;-57
2024/01/16 03:13:52;;;;;;;;;1.00;0.80;;;;;1.15;85.81;99124.28;5094993;28;8811;-58
2024/01/16 03:16:20;;;;;;;;;1.00;1.00;;;;;1.16;85.88;99120.72;5100643;28;8834;-58
2024/01/16 03:18:48;;;;;;;;;3.20;3.20;;;;;1.18;85.87;99118.03;5099420;28;8955;-59
2024/01/16 03:21:16;;;;;;;;;2.40;2.20;;;;;1.18;85.51;99121.50;5097686;28;8864;-57
2024/01/16 03:23:44;;;;;;;;;8.60;7.80;;;;;1.17;85.72;99124.22;5099342;28;8814;-56
2024/01/16 03:26:12;;;;;;;;;2.80;2.80;;;;;1.16;86.09;99128.59;5099604;28;8822;-59
2024/01/16 03:28:40;;;;;;;;;3.60;3.60;;;;;1.18;85.74;99126.75;5102432;28;8849;-59
2024/01/16 03:31:08;;;;;;;;;4.00;4.00;;;;;1.20;85.03;99122.25;5096920;28;8949;-56
2024/01/16 03:33:41;;;;;;;;;6.20;4.80;;;;;1.22;86.15;99120.38;5080593;28;8828;-57
2024/01/16 03:36:11;;;;;;;;;4.00;4.00;;;;;1.25;85.32;99122.00;5097330;28;8826;-57
2024/01/16 03:38:38;;;;;;;;;5.20;4.40;;;;;1.26;85.70;99115.81;5099672;28;8835;-57
2024/01/16 03:41:07;;;;;;;;;3.60;3.20;;;;;1.28;85.68;99119.22;5098009;28;8838;-58
2024/01/16 03:43:35;;;;;;;;;5.80;3.80;;;;;1.28;85.34;99114.00;5097686;28;8841;-56
2024/01/16 03:46:03;;;;;;;;;5.20;3.80;;;;;1.29;85.09;99123.53;5102275;28;8818;-57
2024/01/16 03:48:30;;;;;;;;;3.20;1.00;;;;;1.30;84.97;99119.97;5096145;28;8907;-57
2024/01/16 03:50:58;;;;;;;;;4.40;4.40;;;;;1.32;85.37;99123.34;5096715;28;8810;-59
2024/01/16 03:53:26;;;;;;;;;4.00;3.60;;;;;1.32;85.59;99121.59;5097319;28;8834;-57
2024/01/16 03:55:54;;;;;;;;;4.00;3.20;;;;;1.33;85.44;99120.66;5095856;28;8814;-56
2024/01/16 03:58:22;;;;;;;;;0.80;0.00;;;;;1.34;85.39;99119.72;5097821;28;8822;-59
2024/01/16 04:00:51;;;;;;;;;5.60;5.60;;;;;1.35;85.05;99129.28;5097050;28;8840;-59
2024/01/16 04:03:18;;;;;;;;;5.20;5.20;;;;;1.35;85.52;99128.41;5095592;28;8818;-57
2024/01/16 04:05:46;;;;;;;;;4.00;3.40;;;;;1.35;85.34;99125.78;5096850;28;8815;-56
2024/01/16 04:08:14;;;;;;;;;7.40;7.40;;;;;1.36;85.47;99122.28;5097698;28;8849;-58
2024/01/16 04:10:42;;;;;;;;;4.80;4.80;;;;;1.35;84.88;99126.66;5096295;28;8838;-57
2024/01/16 04:13:26;;;;;;;;;2.40;2.20;;;;;1.36;85.50;99124.91;5097335;28;8822;-57
2024/01/16 04:15:54;;;;;;;;;0.60;0.60;;;;;1.36;84.97;99117.84;5097019;28;8818;-57
2024/01/16 04:18:21;;;;;;;;;5.60;4.00;;;;;1.37;85.28;99118.72;5096549;28;8806;-57
2024/01/16 04:20:51;;;;;;;;;1.00;1.00;;;;;1.37;85.36;99116.91;5096013;28;8938;-57
2024/01/16 04:23:19;;;;;;;;;6.80;6.80;;;;;1.39;85.50;99108.97;5097069;28;8814;-56
2024/01/16 04:25:46;;;;;;;;;5.60;4.80;;;;;1.39;85.28;99114.22;5097041;28;8928;-57
2024/01/16 04:28:14;;;;;;;;;2.60;2.60;;;;;1.40;85.42;99111.53;5099815;28;8857;-59
2024/01/16 04:30:42;;;;;;;;;3.60;3.60;;;;;1.40;84.92;99108.91;5096150;28;8836;-57
2024/01/16 04:33:09;;;;;;;;;6.00;4.20;;;;;1.41;85.28;99114.97;5097078;28;8940;-56
2024/01/16 04:35:37;;;;;;;;;3.00;3.00;;;;;1.42;85.05;99119.28;5098839;28;9471;-59
2024/01/16 04:38:05;;;;;;;;;3.20;3.00;;;;;1.42;85.45;99111.41;5096126;28;8845;-57
2024/01/16 04:40:33;;;;;;;;;7.60;4.40;;;;;1.44;85.62;99117.44;5095850;28;8818;-57
2024/01/16 04:43:01;;;;;;;;;5.60;4.40;;;;;1.44;85.61;99117.44;5095155;28;8817;-58
2024/01/16 04:45:28;;;;;;;;;6.00;6.00;;;;;1.43;85.05;99105.22;5096264;28;8860;-57
2024/01/16 04:47:56;;;;;;;;;3.00;3.00;;;;;1.43;85.50;99113.97;5096585;28;8818;-57
2024/01/16 04:50:31;;;;;;;;;4.00;4.00;;;;;1.44;85.38;99107.78;5095541;28;8834;-57
2024/01/16 04:53:00;;;;;;;;;2.20;2.20;;;;;1.44;85.20;99106.94;5080463;28;8841;-59
2024/01/16 04:55:28;;;;;;;;;6.00;5.60;;;;;1.44;84.85;99099.91;5096687;28;8850;-56
2024/01/16 04:57:55;;;;;;;;;7.40;7.00;;;;;1.45;85.42;99106.84;5095893;28;9508;-58
2024/01/16 05:00:23;;;;;;;;;5.20;4.80;;;;;1.45;84.77;99103.41;5095651;28;8814;-57
2024/01/16 05:02:51;;;;;;;;;4.60;2.20;;;;;1.45;84.89;99104.22;5095535;28;8815;-56
2024/01/16 05:05:19;;;;;;;;;4.20;4.20;;;;;1.45;85.07;99101.59;5096415;28;8814;-58
2024/01/16 05:07:47;;;;;;;;;0.60;0.60;;;;;1.46;85.09;99107.69;5096157;28;9770;-57
2024/01/16 05:10:15;;;;;;;;;7.00;7.00;;;;;1.46;85.48;99100.66;5094934;28;8957;-57
2024/01/16 05:12:42;;;;;;;;;3.60;3.60;;;;;1.46;85.64;99102.47;5094920;28;8829;-57
2024/01/16 05:15:11;;;;;;;;;7.00;4.40;;;;;1.44;85.34;99094.66;5096014;28;8814;-58
2024/01/16 05:17:39;;;;;;;;;3.20;3.20;;;;;1.44;85.27;99092.03;5095240;28;8838;-59
2024/01/16 05:20:06;;;;;;;;;6.40;5.20;;;;;1.45;85.26;99101.59;5096524;28;8951;-57
2024/01/16 05:22:35;;;;;;;;;3.60;3.60;;;;;1.45;85.04;99093.72;5095134;28;8826;-58
2024/01/16 05:25:02;;;;;;;;;4.40;4.40;;;;;1.46;84.93;99095.41;5095510;28;8841;-57
2024/01/16 05:27:30;;;;;;;;;4.40;3.60;;;;;1.45;85.03;99098.97;5096136;28;8828;-57
2024/01/16 05:29:58;;;;;;;;;4.40;3.20;;;;;1.46;85.65;99094.59;5095178;28;8832;-56
2024/01/16 05:32:26;;;;;;;;;1.00;0.60;;;;;1.45;85.33;99087.66;5095886;28;8807;-58
2024/01/16 05:34:53;;;;;;;;;4.00;3.60;;;;;1.46;85.51;99094.59;5093234;28;8798;-59
2024/01/16 05:37:21;;;;;;;;;6.40;5.60;;;;;1.45;85.49;99098.97;5096218;28;9537;-58
2024/01/16 05:39:49;;;;;;;;;6.20;6.00;;;;;1.45;85.37;99096.34;5093470;28;8818;-57
2024/01/16 05:42:17;;;;;;;;;5.60;5.60;;;;;1.45;85.07;99096.34;5093756;28;8861;-57
2024/01/16 05:44:45;;;;;;;;;6.20;6.20;;;;;1.45;85.07;99088.47;5094836;28;8830;-58
2024/01/16 05:47:13;;;;;;;;;4.00;3.40;;;;;1.44;85.13;99088.59;5096137;28;8903;-56
2024/01/16 05:49:42;;;;;;;;;1.00;1.00;;;;;1.43;85.95;99082.50;5093870;28;8919;-57
2024/01/16 05:52:10;;;;;;;;;6.80;5.20;;;;;1.43;85.18;99082.50;5094879;28;8903;-58
2024/01/16 05:54:38;;;;;;;;;3.00;3.00;;;;;1.44;85.07;99078.94;5095376;28;9491;-57
2024/01/16 05:57:06;;;;;;;;;9.60;6.40;;;;;1.44;85.30;99078.94;5098981;28;8954;-58
2024/01/16 05:59:35;;;;;;;;;7.00;7.00;;;;;1.44;84.91;99081.56;5092843;28;8802;-59
2024/01/16 06:02:02;;;;;;;;;6.20;4.80;;;;;1.43;84.91;99079.88;5093382;28;8818;-57
2024/01/16 06:04:30;;;;;;;;;4.00;4.00;;;;;1.44;85.17;99083.34;5094278;28;8810;-59
2024/01/16 06:06:59;;;;;;;;;7.00;6.60;;;;;1.44;85.00;99078.94;5096563;28;8830;-57
2024/01/16 06:09:27;;;;;;;;;5.60;4.80;;;;;1.44;85.65;99080.72;5094991;28;9522;-58
2024/01/16 06:11:55;;;;;;;;;5.60;4.00;;;;;1.44;85.51;99080.72;5094328;28;8814;-58
2024/01/16 06:14:23;;;;;;;;;6.60;6.60;;;;;1.44;85.31;99083.34;5094238;28;8972;-57
2024/01/16 06:16:51;;;;;;;;;2.20;1.40;;;;;1.45;85.43;99080.63;5093934;28;8844;-58
2024/01/16 06:19:19;;;;;;;;;3.40;2.20;;;;;1.45;85.36;99082.41;5094825;28;8836;-57
2024/01/16 06:21:46;;;;;;;;;7.80;6.20;;;;;1.45;85.53;99087.66;5094987;28;8890;-59
2024/01/16 06:24:14;;;;;;;;;3.80;3.80;;;;;1.44;85.03;99084.19;5094643;28;8834;-58
2024/01/16 06:26:42;;;;;;;;;3.40;3.20;;;;;1.45;85.09;99085.88;5095560;28;8814;-58
2024/01/16 06:29:11;;;;;;;;;4.40;4.40;;;;;1.44;85.03;99084.19;5094526;28;8854;-58
2024/01/16 06:31:54;;;;;;;;;5.20;4.40;;;;;1.44;85.36;99086.78;5094437;28;8845;-57
2024/01/16 06:34:22;;;;;;;;;4.40;4.40;;;;;1.45;84.84;99088.47;5094307;28;8822;-57
2024/01/16 06:36:50;;;;;;;;;6.20;5.20;;;;;1.44;85.31;99084.19;5094469;28;8833;-57
2024/01/16 06:39:18;;;;;;;;;5.20;4.80;;;;;1.45;85.36;99087.66;5093968;28;8964;-57
2024/01/16 06:41:45;;;;;;;;;8.00;6.00;;;;;1.44;85.21;99081.56;5094643;28;8953;-58
2024/01/16 06:44:13;;;;;;;;;3.00;3.00;;;;;1.44;85.12;99088.59;5093714;28;8842;-57
2024/01/16 06:46:41;;;;;;;;;4.60;3.80;;;;;1.43;85.29;99085.13;5093507;28;9852;-57
2024/01/16 06:49:09;;;;;;;;;4.60;4.60;;;;;1.42;85.09;99093.91;5094600;28;8829;-56
2024/01/16 06:51:37;;;;;;;;;1.80;1.00;;;;;1.42;85.48;99085.19;5093524;28;8830;-60
2024/01/16 06:54:04;;;;;;;;;3.00;1.00;;;;;1.41;85.12;99087.00;5094853;28;8822;-57
2024/01/16 06:56:32;;;;;;;;;3.60;3.20;;;;;1.39;85.44;99090.63;5094561;28;8841;-58
2024/01/16 06:59:00;;;;;;;;;3.20;2.60;;;;;1.38;85.22;99081.06;5094598;28;8826;-58
2024/01/16 07:01:27;;;;;;;;;1.00;1.00;;;;;1.36;85.52;99091.63;5094728;28;8818;-57
2024/01/16 07:03:55;;;;;;;;;0.80;0.80;;;;;1.37;86.00;99098.56;5094428;28;8965;-57
2024/01/16 07:06:23;;;;;;;;;2.80;1.40;;;;;1.36;85.55;99094.25;5094683;28;8846;-59
2024/01/16 07:08:51;;;;;;;;;3.80;3.00;;;;;1.37;85.29;99098.56;5094214;28;8836;-57
2024/01/16 07:11:19;;;;;;;;;4.00;4.00;;;;;1.37;85.69;99109.06;5094408;28;8841;-59
2024/01/16 07:13:50;;;;;;;;;7.40;7.00;;;;;1.36;85.76;99115.22;5094500;28;8876;-60
2024/01/16 07:16:18;;;;;;;;;3.40;3.40;;;;;1.36;85.29;99115.22;5094545;28;8826;-57
2024/01/16 07:18:45;;;;;;;;;5.20;4.80;;;;;1.35;85.67;99116.16;5094808;28;8932;-57
2024/01/16 07:21:15;;;;;;;;;2.60;2.60;;;;;1.35;85.11;99112.69;5094621;28;8826;-57
2024/01/16 07:23:43;;;;;;;;;3.00;2.60;;;;;1.35;85.02;99121.41;5094629;28;9538;-58
2024/01/16 07:26:10;;;;;;;;;1.40;1.00;;;;;1.34;85.41;99126.72;5094932;28;8830;-56
2024/01/16 07:28:38;;;;;;;;;3.00;3.00;;;;;1.34;85.27;99124.97;5094570;28;8826;-58
2024/01/16 07:31:06;;;;;;;;;4.00;3.80;;;;;1.34;85.37;99126.72;5094012;28;8860;-58
2024/01/16 07:33:34;;;;;;;;;4.40;3.80;;;;;1.34;85.54;99130.22;5094472;28;8944;-58
2024/01/16 07:36:02;;;;;;;;;6.00;4.40;;;;;1.34;85.59;99132.84;5094662;28;8843;-58
2024/01/16 07:38:30;;;;;;;;;3.00;2.20;;;;;1.36;85.52;99136.22;5094637;28;9628;-58
2024/01/16 07:40:57;;;;;;;;;3.60;3.60;;;;;1.37;85.13;99140.53;5094788;28;8833;-59
2024/01/16 07:43:25;;;;;;;;;4.00;4.00;;;;;1.35;84.75;99139.78;5094659;28;8832;-57
2024/01/16 07:45:53;;;;;;;;;4.00;3.00;;;;;1.35;85.33;99136.28;5094091;28;8821;-57
2024/01/16 07:48:22;;;;;;;;;3.20;3.00;;;;;1.35;84.98;99139.78;5094143;28;8838;-57
2024/01/16 07:50:50;;;;;;;;;4.00;3.80;;;;;1.35;85.12;99137.16;5093698;28;8939;-57
2024/01/16 07:53:18;;;;;;;;;6.80;6.00;;;;;1.34;85.39;99143.31;5094275;28;8822;-57
2024/01/16 07:55:46;;;;;;;;;4.00;4.00;;;;;1.35;85.23;99152.88;5094388;28;8822;-59
2024/01/16 07:58:14;;;;;;;;;5.20;4.80;;;;;1.36;84.98;99149.31;5093346;28;8842;-59
2024/01/16 08:00:42;;;;;;;;;1.00;1.00;;;;;1.36;85.01;99151.94;5093605;28;8840;-60
2024/01/16 08:03:10;;;;;;;;;5.40;5.40;;;;;1.37;85.57;99143.13;5094656;28;8952;-60
2024/01/16 08:05:38;;;;;;;;;1.00;1.00;;;;;1.37;84.87;99143.13;5096084;28;8842;-57
2024/01/16 08:08:06;;;;;;;;;7.00;7.00;;;;;1.36;85.33;99144.06;5096899;28;9795;-58
2024/01/16 08:10:34;;;;;;;;;6.20;5.60;;;;;1.35;85.03;99144.16;5096310;28;8842;-59
2024/01/16 08:13:03;;;;;;;;;3.00;2.20;;;;;1.34;85.62;99143.31;5095910;28;8822;-57
2024/01/16 08:15:31;;;;;;;;;1.40;1.40;;;;;1.35;84.98;99152.88;5097251;28;8833;-58
2024/01/16 08:17:59;;;;;;;;;4.00;3.60;;;;;1.35;84.99;99147.63;5096434;28;8864;-57
2024/01/16 08:20:27;;;;;;;;;3.60;3.60;;;;;1.37;85.05;99153.63;5096260;28;8876;-60
2024/01/16 08:22:55;;;;;;;;;4.00;4.00;;;;;1.38;84.86;99144.00;5096576;28;8976;-58
2024/01/16 08:25:23;;;;;;;;;6.60;6.60;;;;;1.40;85.05;99143.00;5096910;28;8822;-57
2024/01/16 08:27:50;;;;;;;;;4.00;3.00;;;;;1.41;85.22;99149.91;5097949;28;8850;-57
2024/01/16 08:30:18;;;;;;;;;4.67;4.00;;;;;1.41;84.72;99155.16;5097381;28;8806;-59
2024/01/16 08:32:48;;;;;;;;;3.00;3.00;;;;;1.44;84.72;99147.13;5097632;28;8830;-57
2024/01/16 08:35:16;;;;;;;;;5.20;5.20;;;;;1.47;84.75;99153.97;5097837;28;8841;-57
2024/01/16 08:37:45;;;;;;;;;6.60;6.60;;;;;1.47;84.60;99152.22;5098251;28;8841;-59
2024/01/16 08:40:13;;;;;;;;;3.00;1.00;;;;;1.48;84.44;99155.66;5098096;28;8848;-58
2024/01/16 08:42:41;;;;;;;;;3.40;3.00;;;;;1.47;84.48;99153.97;5098205;28;8834;-59
2024/01/16 08:45:09;;;;;;;;;3.00;3.00;;;;;1.47;84.95;99153.97;5098302;28;8968;-58
2024/01/16 08:47:36;;;;;;;;;4.40;4.00;;;;;1.50;84.52;99156.41;5098266;28;8971;-58
2024/01/16 08:50:04;;;;;;;;;3.00;3.00;;;;;1.53;85.01;99159.72;5097964;28;8910;-59
2024/01/16 08:52:32;;;;;;;;;4.40;3.80;;;;;1.56;84.35;99158.69;5097403;28;8838;-58
2024/01/16 08:55:00;;;;;;;;;4.00;4.00;;;;;1.57;84.89;99153.38;5097242;28;8817;-59
2024/01/16 08:57:28;;;;;;;;;3.20;3.20;;;;;1.57;84.92;99158.63;5097036;28;8903;-57
2024/01/16 08:59:58;;;;;;;;;1.80;1.80;;;;;1.58;84.68;99157.69;5096569;28;8822;-58
2024/01/16 09:02:28;;;;;;;;;2.20;2.20;;;;;1.60;84.12;99160.22;5096784;28;8834;-58
2024/01/16 09:04:56;;;;;;;;;2.40;1.40;;;;;1.61;84.53;99162.75;5096701;28;8818;-57
2024/01/16 09:07:24;;;;;;;;;1.00;1.00;;;;;1.62;84.64;99164.47;5096658;28;8826;-58
2024/01/16 09:09:52;;;;;;;;;1.00;1.00;;;;;1.62;83.99;99164.47;5096651;28;8848;-57
2024/01/16 09:12:20;;;;;;;;;1.40;1.40;;;;;1.64;84.58;99159.97;5096477;28;8842;-57
2024/01/16 09:14:48;;;;;;;;;0.80;0.80;;;;;1.66;83.99;99165.16;5095567;28;9530;-57
2024/01/16 09:17:16;;;;;;;;;0.00;0.00;;;;;1.67;84.07;99162.41;5096475;28;8819;-57
2024/01/16 09:19:43;;;;;;;;;0.20;0.20;;;;;1.70;84.15;99170.13;5094587;28;8818;-57
2024/01/16 09:22:12;;;;;;;;;1.00;1.00;;;;;1.76;83.79;99168.94;5094194;28;8857;-59
2024/01/16 09:24:40;;;;;;;;;2.60;1.00;;;;;1.78;84.16;99167.06;5093699;28;8952;-59
2024/01/16 09:27:09;;;;;;;;;1.00;0.60;;;;;1.80;84.09;99167.81;5094039;28;8951;-60
2024/01/16 09:29:37;;;;;;;;;0.00;0.00;;;;;1.82;83.32;99181.72;5094787;28;8837;-58
2024/01/16 09:32:06;;;;;;;;;4.60;2.60;;;;;1.82;84.07;99173.84;5094372;28;8898;-57
2024/01/16 09:34:33;;;;;;;;;0.20;0.20;;;;;1.83;83.22;99178.97;5095919;28;8833;-57
2024/01/16 09:37:02;;;;;;;;;1.00;1.00;;;;;1.84;83.47;99178.06;5095169;28;8920;-59
2024/01/16 09:39:31;;;;;;;;;0.00;0.00;;;;;1.85;83.87;99178.91;5095939;28;8822;-57
2024/01/16 09:41:59;;;;;;;;;0.00;0.00;;;;;1.84;83.77;99172.81;5095989;28;8822;-58
2024/01/16 09:44:27;;;;;;;;;0.00;0.00;;;;;1.88;83.29;99171.69;5096443;28;8834;-58
2024/01/16 09:46:55;;;;;;;;;1.00;1.00;;;;;1.92;83.81;99173.22;5095808;28;9527;-60
2024/01/16 09:49:24;;;;;;;;;0.20;0.00;;;;;1.97;83.03;99170.34;5095223;28;8842;-59
2024/01/16 09:51:52;;;;;;;;;0.60;0.00;;;;;1.99;82.82;99169.28;5095270;28;8826;-57
2024/01/16 09:54:19;;;;;;;;;1.00;1.00;;;;;2.01;82.86;99172.69;5094832;28;8850;-57
2024/01/16 09:56:47;;;;;;;;;1.80;1.80;;;;;2.02;83.39;99170.91;5094167;28;8848;-57
2024/01/16 09:59:15;;;;;;;;;0.60;0.60;;;;;2.01;83.23;99166.59;5094676;28;8826;-58
2024/01/16 10:01:43;;;;;;;;;1.00;0.80;;;;;2.01;83.06;99169.22;5094528;28;8826;-58
2024/01/16 10:04:11;;;;;;;;;0.00;0.00;;;;;1.99;82.78;99163.22;5094123;28;9955;-58
2024/01/16 10:06:39;;;;;;;;;1.00;1.00;;;;;1.98;82.43;99166.78;5093635;28;8852;-58
2024/01/16 10:09:08;;;;;;;;;2.20;2.20;;;;;1.98;82.88;99164.97;5094785;28;8826;-60
2024/01/16 10:11:35;;;;;;;;;0.40;0.40;;;;;1.99;82.68;99164.03;5094768;28;9503;-58
2024/01/16 10:14:03;;;;;;;;;0.00;0.00;;;;;2.03;82.41;99159.47;5093594;28;9822;-58
2024/01/16 10:16:31;;;;;;;;;0.40;0.40;;;;;2.06;82.53;99173.25;5092769;28;8846;-58
2024/01/16 10:18:59;;;;;;;;;0.00;0.00;;;;;2.08;82.10;99157.41;5093994;28;8837;-57
2024/01/16 10:21:31;;;;;;;;;0.00;0.00;;;;;2.10;82.44;99151.16;5094317;28;8927;-58
2024/01/16 10:23:59;;;;;;;;;2.60;1.00;;;;;2.12;82.66;99165.03;5093817;28;8830;-57
2024/01/16 10:26:27;;;;;;;;;0.00;0.00;;;;;2.11;82.27;99146.75;5093010;28;8830;-60
2024/01/16 10:28:55;;;;;;;;;1.00;1.00;;;;;2.09;81.99;99144.22;5093401;28;8822;-60
2024/01/16 10:31:23;;;;;;;;;2.60;0.80;;;;;2.10;82.67;99145.91;5094148;28;8846;-59
2024/01/16 10:33:51;;;;;;;;;0.80;0.80;;;;;2.09;81.68;99144.22;5093543;28;8826;-58
2024/01/16 10:36:20;;;;;;;;;0.40;0.40;;;;;2.07;82.10;99138.22;5093738;28;8830;-59
2024/01/16 10:38:51;;;;;;;;;1.00;0.40;;;;;2.07;82.30;99138.22;5094445;28;8818;-59
2024/01/16 10:41:21;;;;;;;;;0.00;0.00;;;;;2.08;81.57;99128.53;5093684;28;8822;-60
2024/01/16 10:43:49;;;;;;;;;0.40;0.40;;;;;2.08;81.54;99134.66;5093308;28;8846;-58
2024/01/16 10:46:17;;;;;;;;;0.80;0.00;;;;;2.11;81.42;99146.75;5093147;28;8984;-58
2024/01/16 10:48:46;;;;;;;;;0.00;0.00;;;;;2.14;81.75;99136.06;5093394;28;8833;-59
2024/01/16 10:51:14;;;;;;;;;0.00;0.00;;;;;2.20;81.59;99128.66;5094321;28;9654;-58
2024/01/16 10:53:42;;;;;;;;;0.00;0.00;;;;;2.29;81.01;99122.84;5094201;28;8850;-58
2024/01/16 10:56:10;;;;;;;;;0.60;0.60;;;;;2.41;81.25;99124.78;5094472;28;8822;-58
2024/01/16 10:58:38;;;;;;;;;0.80;0.80;;;;;2.60;80.72;99124.50;5094537;28;8958;-60
2024/01/16 11:01:06;;;;;;;;;1.00;1.00;;;;;2.75;80.58;99128.84;5094697;28;8825;-58
2024/01/16 11:03:34;;;;;;;;;0.20;0.20;;;;;2.92;79.65;99120.75;5093600;28;8826;-58
2024/01/16 11:06:03;;;;;;;;;0.20;0.00;;;;;3.15;79.19;99118.38;5093919;28;8830;-57
2024/01/16 11:08:33;;;;;;;;;0.00;0.00;;;;;3.36;78.69;99122.28;5093883;28;8830;-59
2024/01/16 11:11:01;;;;;;;;;0.00;0.00;;;;;3.57;78.33;99115.63;5093772;28;8829;-57
2024/01/16 11:13:29;;;;;;;;;3.40;3.00;;;;;3.71;78.16;99112.94;5093471;28;9527;-58
2024/01/16 11:15:57;;;;;;;;;0.40;0.40;;;;;3.78;77.80;99120.34;5093462;28;8830;-58
2024/01/16 11:18:25;;;;;;;;;1.00;0.80;;;;;3.89;77.61;99117.84;5094566;28;8822;-59
2024/01/16 11:20:54;;;;;;;;;0.00;0.00;;;;;4.00;77.03;99111.88;5094383;28;8850;-57
2024/01/16 11:23:34;;;;;;;;;1.00;1.00;;;;;4.16;76.52;99109.91;5094203;28;8844;-59
2024/01/16 11:26:02;;;;;;;;;1.00;1.00;;;;;4.36;76.67;99106.78;5094230;28;9753;-58
2024/01/16 11:28:30;;;;;;;;;1.00;0.00;;;;;4.61;75.92;99101.50;5094189;28;8919;-58
2024/01/16 11:30:59;;;;;;;;;0.00;0.00;;;;;4.98;75.70;99103.25;5093940;28;8846;-58
2024/01/16 11:33:27;;;;;;;;;1.00;1.00;;;;;5.37;74.74;99105.69;5093867;28;8834;-58
2024/01/16 11:35:55;;;;;;;;;0.00;0.00;;;;;5.36;74.59;99096.97;5094154;28;8910;-58
2024/01/16 11:38:23;;;;;;;;;1.00;0.80;;;;;5.23;74.63;99103.22;5096464;28;8841;-60
2024/01/16 11:40:54;;;;;;;;;1.00;1.00;;;;;4.78;74.94;99112.56;5098430;28;8853;-58
2024/01/16 11:43:21;;;;;;;;;0.40;0.40;;;;;4.39;76.23;99096.00;5097239;28;8822;-58
2024/01/16 11:45:50;;;;;;;;;1.00;1.00;;;;;4.11;76.59;99101.50;5095306;28;8829;-58
2024/01/16 11:48:18;;;;;;;;;0.00;0.00;;;;;3.79;77.24;99108.03;5096030;28;8884;-57
2024/01/16 11:50:46;;;;;;;;;1.00;1.00;;;;;3.55;77.72;99101.72;5094864;28;8826;-58
2024/01/16 11:53:14;;;;;;;;;1.00;1.00;;;;;3.39;78.43;99105.47;5095457;28;8834;-58
2024/01/16 11:55:42;;;;;;;;;1.80;1.00;;;;;3.25;78.58;99108.13;5095517;28;8826;-58